METAR Data
IDs: Format: Raw Decoded Include TAF

Data at: 1333 UTC 14 Dec 2019

PFCL 141327Z AUTO 09010KT 10SM BKN009 OVC048 01/01 A2934 RMK AO2 FZRANO TSNO
PFCL 141256Z AUTO 08012KT 10SM BKN011 BKN040 OVC050 01/01 A2935 RMK AO2 SLP931 T00060006 FZRANO TSNO
PFCL 141239Z AUTO 08012KT 10SM SCT002 BKN040 OVC050 01/01 A2935 RMK AO2 FZRANO TSNO
PFCL 141156Z AUTO 08011KT 10SM OVC002 00/00 A2936 RMK AO2 SLP936 60000 70003 T00000000 10000 21022 58019 FZRANO TSNO
PFCL 141056Z AUTO 09009KT 8SM OVC002 00/00 A2939 RMK AO2 SNE48 SLP946 P0000 T00000000 FZRANO TSNO
PFCL 141046Z AUTO 10011KT 3SM -SN BR OVC002 M01/M01 A2939 RMK AO2 P0000 FZRANO TSNO
PFCL 141040Z AUTO 09009KT 1 1/4SM -SN BR OVC002 M01/M01 A2939 RMK AO2 P0000 FZRANO TSNO
PFCL 141026Z AUTO 08008KT 3/4SM -SN BR OVC002 M01/M01 A2939 RMK AO2 P0000 FZRANO TSNO
PFCL 140956Z AUTO 06007KT 1/2SM -SN FZFG OVC002 M02/M02 A2940 RMK AO2 SNB31 SLP951 P0000 T10171017 FZRANO TSNO
PFCL 140933Z AUTO 05006KT 1/2SM -SN FZFG OVC002 M02/M02 A2941 RMK AO2 SNB31 P0000 FZRANO TSNO
PFCL 140928Z AUTO 05008KT 1SM BR OVC002 M02/M02 A2941 RMK AO2 FZRANO TSNO
PFCL 140910Z AUTO 07006KT 2 1/2SM BR OVC002 M02/M02 A2942 RMK AO2 FZRANO TSNO
PFCL 140856Z AUTO 08005KT 1 3/4SM BR OVC004 M02/M02 A2942 RMK AO2 VIS 1 1/4V5 SLP955 60000 T10171017 400061022 56004 FZRANO TSNO
PFCL 140644Z AUTO 06007KT 9SM -SN OVC004 M02/M02 A2941 RMK AO2 SNB36 P0000 FZRANO TSNO
PFCL 140556Z AUTO 07005KT 10SM BKN008 OVC044 M02/M02 A2943 RMK AO2 SLP959 60000 T10171017 11011 21022 58004 FZRANO TSNO
PFCL 140531Z AUTO 06004KT 10SM SCT006 OVC044 M02/M02 A2943 RMK AO2 FZRANO TSNO
PFCL 140456Z AUTO 06005KT 10SM OVC008 M02/M02 A2943 RMK AO2 SLP961 T10171017 FZRANO TSNO
PFCL 140356Z AUTO 00000KT 10SM OVC006 M02/M02 A2944 RMK AO2 CIG 006V009 SLP962 T10171017 FZRANO TSNO
PFCL 140256Z AUTO 07003KT 9SM OVC008 M02/M02 A2944 RMK AO2 UPB08E30SNB11E23B43E53 SLP963 P0000 60000 T10221022 51001 FZRANO TSNO
PFCL 140228Z AUTO 00000KT 10SM UP BKN008 BKN023 OVC028 M02/M02 A2944 RMK AO2 UPB08SNB11E23 P0000 FZRANO TSNO
PFCL 140208Z AUTO 03003KT 10SM UP FEW008 SCT023 OVC028 M02/M02 A2944 RMK AO2 UPB08 P0000 FZRANO TSNO
PFCL 140156Z AUTO 00000KT 10SM OVC028 M02/M02 A2944 RMK AO2 SLP963 T10171017 FZRANO TSNO
PFCL 140148Z AUTO 00000KT 10SM OVC028 M02/M02 A2944 RMK AO2 FZRANO TSNO
PFCL 140140Z AUTO 00000KT 10SM FEW022 OVC030 M02/M02 A2944 RMK AO2 FZRANO TSNO
PFCL 140124Z AUTO 16003KT 10SM FEW007 BKN022 OVC028 M02/M02 A2944 RMK AO2 FZRANO TSNO
PFCL 140056Z AUTO 13003KT 4SM BR BKN005 OVC009 M02/M02 A2944 RMK AO2 CIG 003V008 SLP963 T10171017 FZRANO TSNO
PFCL 140041Z AUTO 09004KT 3SM BR BKN005 OVC009 M02/M02 A2945 RMK AO2 CIG 004V008 FZRANO TSNO
PFCL 140036Z AUTO 09005KT 2 1/2SM BR OVC007 M02/M02 A2945 RMK AO2 CIG 004V009 FZRANO TSNO
PFCL 132356Z AUTO 08005KT 10SM OVC009 M01/M02 A2944 RMK AO2 SLP962 T10111017 11006 21011 51017 FZRANO TSNO
PFCL 132256Z AUTO 00000KT 10SM OVC009 M01/M01 A2942 RMK AO2 SLP956 T10061011 FZRANO TSNO
PFCL 132221Z AUTO 00000KT 10SM OVC009 M01/M02 A2941 RMK AO2 FZRANO TSNO
PFCL 132156Z AUTO 00000KT 10SM OVC011 M01/M02 A2941 RMK AO2 CIG 009V013 SLP952 T10111022 FZRANO TSNO
PFCL 132138Z AUTO 00000KT 10SM OVC014 M01/M02 A2940 RMK AO2 FZRANO TSNO
PFCL 132025Z AUTO 10006KT 10SM BKN012 OVC018 M01/M02 A2938 RMK AO2 FZRANO TSNO
PFCL 131856Z AUTO 13004KT 10SM OVC009 M01/M01 A2934 RMK AO2 UPE1757 SLP930 T10061011 FZRANO TSNO
PFCL 131756Z AUTO 12003KT 10SM UP OVC009 M01/M01 A2932 RMK AO2 SLP923 P0001 60003 T10061006 10000 21006 53018 FZRANO TSNO
PFCL 131620Z AUTO 00000KT 10SM UP OVC009 00/00 A2929 RMK AO2 P0000 FZRANO TSNO
PFCL 131556Z AUTO 00000KT 10SM UP BKN011 OVC017 00/00 A2929 RMK AO2 SLP911 P0001 T00000000 FZRANO TSNO
PFCL 131542Z AUTO 21003KT 10SM UP BKN011 BKN017 OVC046 00/00 A2928 RMK AO2 P0001 FZRANO TSNO
PFCL 131456Z AUTO 24005KT 10SM UP BKN040 OVC048 00/00 A2927 RMK AO2 UPB11 SLP905 P0000 60000 T00000000 53010 FZRANO TSNO
PFCL 131156Z AUTO 12004KT 10SM UP OVC050 00/00 A2924 RMK AO2 SLP895 P0000 60005 70006 T00000000 10006 21006 53008 FZRANO TSNO
PFCL 131056Z AUTO 31006KT 10SM UP BKN044 OVC049 00/M01 A2922 RMK AO2 SLP889 P0004 T00001006 FZRANO TSNO
PFCL 130956Z AUTO 00000KT 10SM UP OVC032 00/M01 A2922 RMK AO2 RAE47UPB03E14B47 SLP889 P0001 T00001011 FZRANO TSNO
PFCL 130756Z AUTO 09005KT 10SM OVC055 00/M02 A2919 RMK AO2 SLP879 T00001022 FZRANO TSNO
PFCL 130556Z AUTO 35004KT 10SM OVC060 00/M02 A2917 RMK AO2 SLP872 T00001022 10011 21006 52002 FZRANO TSNO